createdAt,value
2022-11-17T00:00:33.546Z,-0.40
2022-11-17T00:03:01.204Z,-0.41
2022-11-17T00:05:28.895Z,-0.39
2022-11-17T00:08:00.844Z,-0.28
2022-11-17T00:10:28.529Z,-0.22
2022-11-17T00:13:28.381Z,-0.19
2022-11-17T00:15:56.035Z,-0.11
2022-11-17T00:18:41.443Z,-0.07
2022-11-17T00:21:21.301Z,-0.05
2022-11-17T00:26:24.543Z,-0.01
2022-11-17T00:28:55.634Z,0.02
2022-11-17T00:31:42.137Z,0.01
2022-11-17T00:34:14.532Z,-0.05
2022-11-17T00:36:44.983Z,-0.01
2022-11-17T00:39:14.309Z,0.03
2022-11-17T00:41:43.488Z,0.14
2022-11-17T00:44:11.275Z,0.24
2022-11-17T00:46:39.796Z,0.26
2022-11-17T00:49:08.727Z,0.30
2022-11-17T00:51:39.772Z,0.34
2022-11-17T00:54:10.971Z,0.39
2022-11-17T00:56:43.383Z,0.40
2022-11-17T00:59:11.327Z,0.41
2022-11-17T01:01:39.702Z,0.45
2022-11-17T01:04:08.271Z,0.53
2022-11-17T01:06:37.834Z,0.60
2022-11-17T01:09:09.308Z,0.62
2022-11-17T01:11:36.970Z,0.69
2022-11-17T01:14:06.034Z,0.72
2022-11-17T01:16:34.380Z,0.80
2022-11-17T01:19:03.463Z,0.84
2022-11-17T01:21:32.475Z,0.85
2022-11-17T01:24:02.867Z,0.88
2022-11-17T01:26:33.367Z,0.88
2022-11-17T01:29:02.304Z,0.90
2022-11-17T01:31:34.633Z,0.99
2022-11-17T01:34:02.486Z,1.04
2022-11-17T01:36:51.936Z,1.12
2022-11-17T01:39:19.951Z,1.23
2022-11-17T01:41:47.959Z,1.21
2022-11-17T01:44:54.537Z,1.20
2022-11-17T01:47:27.106Z,1.22
2022-11-17T01:49:59.306Z,1.25
2022-11-17T01:52:27.501Z,1.32
2022-11-17T01:54:58.120Z,1.35
2022-11-17T01:57:31.521Z,1.39
2022-11-17T02:00:02.859Z,1.39
2022-11-17T02:02:32.587Z,1.40
2022-11-17T02:05:07.747Z,1.46
2022-11-17T02:07:42.784Z,1.56
2022-11-17T02:10:11.258Z,1.76
2022-11-17T02:12:39.743Z,1.80
2022-11-17T02:15:08.272Z,1.78
2022-11-17T02:17:40.219Z,1.80
2022-11-17T02:20:13.114Z,1.77
2022-11-17T02:23:05.021Z,1.85
2022-11-17T02:25:49.791Z,2.01
2022-11-17T02:28:23.051Z,2.00
2022-11-17T02:31:02.885Z,2.08
2022-11-17T02:33:44.817Z,2.10
2022-11-17T02:36:21.295Z,2.12
2022-11-17T02:38:55.461Z,2.16
2022-11-17T02:41:28.548Z,2.14
2022-11-17T02:44:05.477Z,2.16
2022-11-17T02:46:46.611Z,2.14
2022-11-17T02:49:20.889Z,2.20
2022-11-17T02:51:54.011Z,2.29
2022-11-17T02:54:23.731Z,2.30
2022-11-17T02:56:51.470Z,2.32
2022-11-17T02:59:24.832Z,2.51
2022-11-17T03:02:22.431Z,2.58
2022-11-17T03:05:03.003Z,2.61
2022-11-17T03:07:46.934Z,2.52
2022-11-17T03:10:19.007Z,2.42
2022-11-17T03:12:56.055Z,2.41
2022-11-17T03:15:33.914Z,2.45
2022-11-17T03:18:09.450Z,2.50
2022-11-17T03:20:41.623Z,2.48
2022-11-17T03:23:14.902Z,2.44
2022-11-17T03:25:47.362Z,2.33
2022-11-17T03:28:20.975Z,2.20
2022-11-17T03:30:52.571Z,2.14
2022-11-17T03:33:23.852Z,2.02
2022-11-17T03:35:57.977Z,1.93
2022-11-17T03:38:29.721Z,1.89
2022-11-17T03:41:00.315Z,1.97
2022-11-17T03:43:30.459Z,2.00
2022-11-17T03:46:05.104Z,1.98
2022-11-17T03:48:39.344Z,2.06
2022-11-17T03:51:10.238Z,2.15
2022-11-17T03:53:38.585Z,2.12
2022-11-17T03:56:16.700Z,2.20
2022-11-17T03:58:54.170Z,2.19
2022-11-17T04:01:24.154Z,2.24
2022-11-17T04:03:53.105Z,2.34
2022-11-17T04:06:20.828Z,2.41
2022-11-17T04:08:48.507Z,2.49
2022-11-17T04:11:33.776Z,2.55
2022-11-17T04:14:20.499Z,2.57
2022-11-17T04:16:49.524Z,2.57
2022-11-17T04:19:17.272Z,2.63
2022-11-17T04:21:44.946Z,2.65
2022-11-17T04:24:12.726Z,2.74
2022-11-17T04:26:58.097Z,2.83
2022-11-17T04:29:25.825Z,2.85
2022-11-17T04:31:55.218Z,2.90
2022-11-17T04:34:22.930Z,2.84
2022-11-17T04:36:50.900Z,2.87
2022-11-17T04:39:18.694Z,2.98
2022-11-17T04:41:54.502Z,3.02
2022-11-17T04:44:24.358Z,3.05
2022-11-17T04:46:52.523Z,3.19
2022-11-17T04:49:23.378Z,3.11
2022-11-17T04:51:52.664Z,3.13
2022-11-17T04:54:22.207Z,3.06
2022-11-17T04:56:49.847Z,2.93
2022-11-17T04:59:21.264Z,2.92
2022-11-17T05:01:49.671Z,2.90
2022-11-17T05:04:40.272Z,2.85
2022-11-17T05:07:10.201Z,2.93
2022-11-17T05:09:37.954Z,2.93
2022-11-17T05:12:23.397Z,2.91
2022-11-17T05:14:52.335Z,2.98
2022-11-17T05:17:20.817Z,3.03
2022-11-17T05:19:52.453Z,3.11
2022-11-17T05:22:41.368Z,3.31
2022-11-17T05:25:09.757Z,3.44
2022-11-17T05:27:37.879Z,3.52
2022-11-17T05:30:09.792Z,3.61
2022-11-17T05:32:37.542Z,3.72
2022-11-17T05:35:05.805Z,3.75
2022-11-17T05:37:34.816Z,3.74
2022-11-17T05:40:02.477Z,3.78
2022-11-17T05:42:30.153Z,3.89
2022-11-17T05:44:57.815Z,3.92
2022-11-17T05:47:25.519Z,4.05
2022-11-17T05:49:53.196Z,4.10
2022-11-17T05:52:22.082Z,4.18
2022-11-17T05:54:51.147Z,4.24
2022-11-17T05:57:29.431Z,4.28
2022-11-17T06:00:04.168Z,4.35
2022-11-17T06:02:36.590Z,4.44
2022-11-17T06:05:04.588Z,4.54
2022-11-17T06:07:32.357Z,4.65
2022-11-17T06:10:01.449Z,4.77
2022-11-17T06:12:29.115Z,4.79
2022-11-17T06:14:56.801Z,4.74
2022-11-17T06:17:29.081Z,4.78
2022-11-17T06:20:01.085Z,4.75
2022-11-17T06:22:29.061Z,4.77
2022-11-17T06:24:57.423Z,4.82
2022-11-17T06:27:27.498Z,4.80
2022-11-17T06:29:57.228Z,4.93
2022-11-17T06:32:24.902Z,4.83
2022-11-17T06:34:56.174Z,4.81
2022-11-17T06:37:24.951Z,4.86
2022-11-17T06:39:52.736Z,4.86
2022-11-17T06:42:40.415Z,4.99
2022-11-17T06:45:11.103Z,4.95
2022-11-17T06:47:41.760Z,4.93
2022-11-17T06:50:10.571Z,5.05
2022-11-17T06:52:41.164Z,4.95
2022-11-17T06:55:09.771Z,4.94
2022-11-17T06:57:37.536Z,5.02
2022-11-17T07:00:07.058Z,5.12
2022-11-17T07:02:37.180Z,5.18
2022-11-17T07:05:05.298Z,5.19
2022-11-17T07:07:33.114Z,5.16
2022-11-17T07:10:00.891Z,5.16
2022-11-17T07:12:30.325Z,5.22
2022-11-17T07:14:58.046Z,5.21
2022-11-17T07:17:28.205Z,5.37
2022-11-17T07:19:57.449Z,5.41
2022-11-17T07:22:25.826Z,5.34
2022-11-17T07:24:53.548Z,5.32
2022-11-17T07:27:21.312Z,5.37
2022-11-17T07:29:49.076Z,5.39
2022-11-17T07:32:16.790Z,5.43
2022-11-17T07:34:44.980Z,5.54
2022-11-17T07:37:17.455Z,5.68
2022-11-17T07:39:45.198Z,5.74
2022-11-17T07:42:12.905Z,5.71
2022-11-17T07:44:40.616Z,5.78
2022-11-17T07:47:08.479Z,5.74
2022-11-17T07:49:36.174Z,5.86
2022-11-17T07:52:03.977Z,5.90
2022-11-17T07:54:33.062Z,6.01
2022-11-17T07:57:00.834Z,6.04
2022-11-17T07:59:28.727Z,6.01
2022-11-17T08:01:56.513Z,5.97
2022-11-17T08:04:24.441Z,5.99
2022-11-17T08:06:52.267Z,6.08
2022-11-17T08:09:20.048Z,6.13
2022-11-17T08:11:49.499Z,6.15
2022-11-17T08:14:17.217Z,6.18
2022-11-17T08:16:44.965Z,6.12
2022-11-17T08:19:14.255Z,6.13
2022-11-17T08:21:42.190Z,6.26
2022-11-17T08:24:13.169Z,6.28
2022-11-17T08:26:41.093Z,6.27
2022-11-17T08:29:10.178Z,6.25
2022-11-17T08:31:38.725Z,6.34
2022-11-17T08:34:06.427Z,6.37
2022-11-17T08:36:34.142Z,6.37
2022-11-17T08:39:02.049Z,6.52
2022-11-17T08:41:29.812Z,6.59
2022-11-17T08:43:57.522Z,6.72
2022-11-17T08:46:27.115Z,6.85
2022-11-17T08:48:57.154Z,6.93
2022-11-17T08:51:25.392Z,7.09
2022-11-17T08:53:53.114Z,7.22
2022-11-17T08:56:20.901Z,7.46
2022-11-17T08:58:48.890Z,7.64
2022-11-17T09:01:17.539Z,7.88
2022-11-17T09:03:48.717Z,8.23
2022-11-17T09:06:17.708Z,8.57
2022-11-17T09:08:46.907Z,8.84
2022-11-17T09:11:16.487Z,9.13
2022-11-17T09:13:45.682Z,9.40
2022-11-17T09:16:14.379Z,9.51
2022-11-17T09:18:42.362Z,9.49
2022-11-17T09:21:13.570Z,9.49
2022-11-17T09:23:41.279Z,9.53
2022-11-17T09:26:11.440Z,9.83
2022-11-17T09:28:42.117Z,9.94
2022-11-17T09:31:11.719Z,10.07
2022-11-17T09:33:39.857Z,10.32
2022-11-17T09:36:08.366Z,10.84
2022-11-17T09:38:38.796Z,11.56
2022-11-17T09:41:22.222Z,12.23
2022-11-17T09:43:55.602Z,12.62
2022-11-17T09:46:31.586Z,12.73
2022-11-17T09:49:07.258Z,12.86
2022-11-17T09:51:37.345Z,13.29
2022-11-17T09:54:14.523Z,13.66
2022-11-17T09:56:42.338Z,13.17
2022-11-17T09:59:15.307Z,12.71
2022-11-17T10:01:43.401Z,12.35
2022-11-17T10:04:16.799Z,12.52
2022-11-17T10:06:47.269Z,12.67
2022-11-17T10:09:25.713Z,12.94
2022-11-17T10:11:55.561Z,13.25
2022-11-17T10:14:23.797Z,13.14
2022-11-17T10:16:53.758Z,12.83
2022-11-17T10:19:24.276Z,12.69
2022-11-17T10:21:55.204Z,12.43
2022-11-17T10:24:38.678Z,12.26
2022-11-17T10:27:15.908Z,12.01
2022-11-17T10:29:57.825Z,11.87
2022-11-17T10:32:25.860Z,11.87
2022-11-17T10:34:54.181Z,11.80
2022-11-17T10:37:30.144Z,11.82
2022-11-17T10:40:20.575Z,11.80
2022-11-17T10:42:58.918Z,11.91
2022-11-17T10:45:27.085Z,12.07
2022-11-17T10:48:09.211Z,12.05
2022-11-17T10:50:36.984Z,12.08
2022-11-17T10:53:23.328Z,12.10
2022-11-17T10:55:59.297Z,12.15
2022-11-17T10:58:28.604Z,12.37
2022-11-17T11:00:58.481Z,12.57
2022-11-17T11:03:29.307Z,12.44
2022-11-17T11:06:10.748Z,12.46
2022-11-17T11:08:48.198Z,12.59
2022-11-17T11:11:34.883Z,12.63
2022-11-17T11:14:14.029Z,12.75
2022-11-17T11:16:47.612Z,12.78
2022-11-17T11:19:17.868Z,12.93
2022-11-17T11:21:56.780Z,13.20
2022-11-17T11:24:31.732Z,13.36
2022-11-17T11:27:07.540Z,13.42
2022-11-17T11:29:51.336Z,13.45
2022-11-17T11:32:30.643Z,13.42
2022-11-17T11:35:17.410Z,13.37
2022-11-17T11:37:53.270Z,13.23
2022-11-17T11:40:27.745Z,13.10
2022-11-17T11:42:59.532Z,12.98
2022-11-17T11:45:46.959Z,12.81
2022-11-17T11:48:20.365Z,12.66
2022-11-17T11:50:57.491Z,12.49
2022-11-17T11:53:45.204Z,12.45
2022-11-17T11:56:18.432Z,12.48
2022-11-17T11:58:54.152Z,12.53
2022-11-17T12:01:23.933Z,12.59
2022-11-17T12:04:07.096Z,12.73
2022-11-17T12:06:41.191Z,13.14
2022-11-17T12:09:32.998Z,13.37
2022-11-17T12:12:01.742Z,13.38
2022-11-17T12:14:32.882Z,13.23
2022-11-17T12:17:07.319Z,12.92
2022-11-17T12:19:54.547Z,12.62
2022-11-17T12:22:59.385Z,12.57
2022-11-17T12:25:31.041Z,12.58
2022-11-17T12:27:58.801Z,12.57
2022-11-17T12:30:54.087Z,12.44
2022-11-17T12:33:22.121Z,12.45
2022-11-17T12:36:16.821Z,12.40
2022-11-17T12:38:44.736Z,12.48
2022-11-17T12:41:13.060Z,12.52
2022-11-17T12:43:40.768Z,12.57
2022-11-17T12:46:21.430Z,12.48
2022-11-17T12:49:07.915Z,12.62
2022-11-17T12:51:41.071Z,12.67
2022-11-17T12:54:23.194Z,12.73
2022-11-17T12:57:05.161Z,12.71
2022-11-17T13:00:05.285Z,12.69
2022-11-17T13:02:59.702Z,12.70
2022-11-17T13:05:30.087Z,12.54
2022-11-17T13:08:25.743Z,12.43
2022-11-17T13:11:04.596Z,12.76
2022-11-17T13:13:34.927Z,12.88
2022-11-17T13:16:07.134Z,12.85
2022-11-17T13:18:38.822Z,12.73
2022-11-17T13:21:28.709Z,12.64
2022-11-17T13:23:57.514Z,12.49
2022-11-17T13:26:27.507Z,12.36
2022-11-17T13:29:08.612Z,12.23
2022-11-17T13:31:36.730Z,12.23
2022-11-17T13:34:08.643Z,12.27
2022-11-17T13:36:36.446Z,12.50
2022-11-17T13:39:04.982Z,12.63
2022-11-17T13:41:38.222Z,12.74
2022-11-17T13:44:09.640Z,12.86
2022-11-17T13:46:38.764Z,14.75
2022-11-17T13:49:35.392Z,16.83
2022-11-17T13:52:03.245Z,17.22
2022-11-17T13:54:31.478Z,16.33
2022-11-17T13:57:08.226Z,14.90
2022-11-17T13:59:39.506Z,13.77
2022-11-17T14:02:31.022Z,12.92
2022-11-17T14:05:23.590Z,12.55
2022-11-17T14:07:52.936Z,12.37
2022-11-17T14:10:39.313Z,12.20
2022-11-17T14:13:21.991Z,12.06
2022-11-17T14:15:56.497Z,11.93
2022-11-17T14:18:29.509Z,11.73
2022-11-17T14:21:13.403Z,11.70
2022-11-17T14:23:41.751Z,11.66
2022-11-17T14:26:20.874Z,11.58
2022-11-17T14:28:50.073Z,11.45
2022-11-17T14:31:18.441Z,11.36
2022-11-17T14:33:46.665Z,11.32
2022-11-17T14:36:17.637Z,11.31
2022-11-17T14:38:46.012Z,11.26
2022-11-17T14:41:16.090Z,11.21
2022-11-17T14:43:43.861Z,11.04
2022-11-17T14:46:19.699Z,10.97
2022-11-17T14:48:47.554Z,10.94
2022-11-17T14:51:17.167Z,11.01
2022-11-17T14:53:45.027Z,10.97
2022-11-17T14:56:15.810Z,10.95
2022-11-17T14:58:43.523Z,10.89
2022-11-17T15:01:12.424Z,10.71
2022-11-17T15:03:40.327Z,10.51
2022-11-17T15:06:09.827Z,10.32
2022-11-17T15:08:40.237Z,10.12
2022-11-17T15:11:07.971Z,9.85
2022-11-17T15:13:35.679Z,9.59
2022-11-17T15:16:04.188Z,9.36
2022-11-17T15:18:32.301Z,9.09
2022-11-17T15:21:04.864Z,9.02
2022-11-17T15:23:32.955Z,8.73
2022-11-17T15:26:04.541Z,8.57
2022-11-17T15:28:32.653Z,8.36
2022-11-17T15:31:00.592Z,8.12
2022-11-17T15:33:28.306Z,7.97
2022-11-17T15:36:03.018Z,7.86
2022-11-17T15:38:31.818Z,7.73
2022-11-17T15:40:59.977Z,7.61
2022-11-17T15:43:32.774Z,7.66
2022-11-17T15:46:05.235Z,7.63
2022-11-17T15:48:33.401Z,7.59
2022-11-17T15:51:03.120Z,7.55
2022-11-17T15:53:32.432Z,7.43
2022-11-17T15:56:04.958Z,7.34
2022-11-17T15:58:34.227Z,7.29
2022-11-17T16:01:13.252Z,7.15
2022-11-17T16:03:42.336Z,6.93
2022-11-17T16:06:11.690Z,6.91
2022-11-17T16:08:40.107Z,6.79
2022-11-17T16:11:08.557Z,6.72
2022-11-17T16:13:38.145Z,6.59
2022-11-17T16:16:07.367Z,6.59
2022-11-17T16:18:35.592Z,6.54
2022-11-17T16:21:05.174Z,6.43
2022-11-17T16:23:38.877Z,6.45
2022-11-17T16:26:06.728Z,6.42
2022-11-17T16:28:34.507Z,6.42
2022-11-17T16:31:13.269Z,6.35
2022-11-17T16:33:41.022Z,6.38
2022-11-17T16:36:10.051Z,6.31
2022-11-17T16:38:45.623Z,6.18
2022-11-17T16:41:23.840Z,6.19
2022-11-17T16:43:54.997Z,6.09
2022-11-17T16:46:26.089Z,6.05
2022-11-17T16:48:54.253Z,6.04
2022-11-17T16:51:23.523Z,5.95
2022-11-17T16:53:56.857Z,5.94
2022-11-17T16:56:24.992Z,5.94
2022-11-17T16:58:53.304Z,6.01
2022-11-17T17:01:22.788Z,6.09
2022-11-17T17:03:56.001Z,6.18
2022-11-17T17:06:23.917Z,6.27
2022-11-17T17:08:54.846Z,6.29
2022-11-17T17:11:23.078Z,6.32
2022-11-17T17:13:51.293Z,6.37
2022-11-17T17:16:21.171Z,6.33
2022-11-17T17:18:49.257Z,6.28
2022-11-17T17:21:20.365Z,6.19
2022-11-17T17:23:48.178Z,6.16
2022-11-17T17:26:18.542Z,6.14
2022-11-17T17:28:48.398Z,6.13
2022-11-17T17:31:21.298Z,6.17
2022-11-17T17:33:51.070Z,6.23
2022-11-17T17:36:21.966Z,6.25
2022-11-17T17:38:55.447Z,6.21
2022-11-17T17:41:25.799Z,6.15
2022-11-17T17:43:58.355Z,6.10
2022-11-17T17:46:26.907Z,6.05
2022-11-17T17:48:54.810Z,5.97
2022-11-17T17:51:25.631Z,5.88
2022-11-17T17:53:54.314Z,5.82
2022-11-17T17:56:23.601Z,5.72
2022-11-17T17:58:51.789Z,5.59
2022-11-17T18:01:21.505Z,5.45
2022-11-17T18:03:50.863Z,5.40
2022-11-17T18:06:21.015Z,5.24
2022-11-17T18:08:53.626Z,5.26
2022-11-17T18:11:22.398Z,5.15
2022-11-17T18:13:51.988Z,5.09
2022-11-17T18:16:22.408Z,4.93
2022-11-17T18:18:50.880Z,4.83
2022-11-17T18:21:20.307Z,4.84
2022-11-17T18:23:48.283Z,4.92
2022-11-17T18:26:19.784Z,4.86
2022-11-17T18:28:52.553Z,4.77
2022-11-17T18:31:21.441Z,4.76
2022-11-17T18:33:52.021Z,4.76
2022-11-17T18:36:20.132Z,4.73
2022-11-17T18:38:48.588Z,4.68
2022-11-17T18:41:18.648Z,4.67
2022-11-17T18:43:46.978Z,4.74
2022-11-17T18:46:16.706Z,4.81
2022-11-17T18:48:46.347Z,4.81
2022-11-17T18:51:20.540Z,4.83
2022-11-17T18:53:49.443Z,4.83
2022-11-17T18:56:20.829Z,4.78
2022-11-17T18:58:48.688Z,4.79
2022-11-17T19:01:18.792Z,4.78
2022-11-17T19:03:48.778Z,4.83
2022-11-17T19:06:17.995Z,4.84
2022-11-17T19:08:46.288Z,4.83
2022-11-17T19:11:14.145Z,4.84
2022-11-17T19:13:44.326Z,4.85
2022-11-17T19:16:14.514Z,4.95
2022-11-17T19:18:42.838Z,5.08
2022-11-17T19:21:12.485Z,5.06
2022-11-17T19:23:41.927Z,5.18
2022-11-17T19:26:11.810Z,5.21
2022-11-17T19:28:40.001Z,5.24
2022-11-17T19:31:10.886Z,5.31
2022-11-17T19:33:40.481Z,5.34
2022-11-17T19:36:10.693Z,5.40
2022-11-17T19:38:39.172Z,5.45
2022-11-17T19:41:08.857Z,5.46
2022-11-17T19:43:43.368Z,5.45
2022-11-17T19:46:15.755Z,5.56
2022-11-17T19:48:44.402Z,5.56
2022-11-17T19:51:15.706Z,5.67
2022-11-17T19:53:43.735Z,5.77
2022-11-17T19:56:12.001Z,5.77
2022-11-17T19:58:41.041Z,5.81
2022-11-17T20:01:11.428Z,5.86
2022-11-17T20:03:44.040Z,5.98
2022-11-17T20:06:15.793Z,6.11
2022-11-17T20:08:44.968Z,6.15
2022-11-17T20:11:17.304Z,6.13
2022-11-17T20:13:46.333Z,6.18
2022-11-17T20:16:18.248Z,6.20
2022-11-17T20:18:53.161Z,6.31
2022-11-17T20:21:21.448Z,6.32
2022-11-17T20:23:49.657Z,6.25
2022-11-17T20:26:19.301Z,6.19
2022-11-17T20:28:47.946Z,6.18
2022-11-17T20:31:19.371Z,6.08
2022-11-17T20:33:49.456Z,6.02
2022-11-17T20:36:20.288Z,5.98
2022-11-17T20:38:51.700Z,5.89
2022-11-17T20:41:21.125Z,5.89
2022-11-17T20:43:50.312Z,5.83
2022-11-17T20:46:18.993Z,5.80
2022-11-17T20:48:49.099Z,5.90
2022-11-17T20:51:18.816Z,6.01
2022-11-17T20:53:47.201Z,6.01
2022-11-17T20:56:17.058Z,6.03
2022-11-17T20:58:45.336Z,5.93
2022-11-17T21:01:15.599Z,5.88
2022-11-17T21:03:44.067Z,5.84
2022-11-17T21:06:15.401Z,5.94
2022-11-17T21:08:46.028Z,6.06
2022-11-17T21:11:32.098Z,6.12
2022-11-17T21:14:02.012Z,6.08
2022-11-17T21:16:31.482Z,6.23
2022-11-17T21:19:00.772Z,6.25
2022-11-17T21:21:31.349Z,6.22
2022-11-17T21:23:59.916Z,6.32
2022-11-17T21:26:29.491Z,6.29
2022-11-17T21:29:03.219Z,6.29
2022-11-17T21:31:35.859Z,6.19
2022-11-17T21:34:08.364Z,6.35
2022-11-17T21:36:39.928Z,6.18
2022-11-17T21:39:10.579Z,6.22
2022-11-17T21:41:38.597Z,6.27
2022-11-17T21:44:08.822Z,6.29
2022-11-17T21:46:37.058Z,6.30
2022-11-17T21:49:06.802Z,6.25
2022-11-17T21:51:40.053Z,6.26
2022-11-17T21:54:12.616Z,6.35
2022-11-17T21:56:41.416Z,6.49
2022-11-17T21:59:14.621Z,6.62
2022-11-17T22:01:44.734Z,6.77
2022-11-17T22:04:13.324Z,6.83
2022-11-17T22:06:42.757Z,6.91
2022-11-17T22:09:10.483Z,6.89
2022-11-17T22:11:38.990Z,6.97
2022-11-17T22:14:11.888Z,6.95
2022-11-17T22:16:41.385Z,6.96
2022-11-17T22:19:10.134Z,6.99
2022-11-17T22:21:38.702Z,7.05
2022-11-17T22:24:10.499Z,7.07
2022-11-17T22:26:38.742Z,7.13
2022-11-17T22:29:08.159Z,7.14
2022-11-17T22:31:35.930Z,7.17
2022-11-17T22:34:03.871Z,7.17
2022-11-17T22:36:31.629Z,7.06
2022-11-17T22:38:59.393Z,7.16
2022-11-17T22:41:28.506Z,7.16
2022-11-17T22:43:57.617Z,7.19
2022-11-17T22:46:27.016Z,7.26
2022-11-17T22:48:54.926Z,7.29
2022-11-17T22:51:40.584Z,7.33
2022-11-17T22:54:09.054Z,7.39
2022-11-17T22:56:38.153Z,7.42
2022-11-17T23:04:00.583Z,7.25
2022-11-17T23:06:28.462Z,7.30
2022-11-17T23:08:58.041Z,7.34
2022-11-17T23:11:41.911Z,7.35
2022-11-17T23:14:12.263Z,7.34
2022-11-17T23:16:40.454Z,7.33
2022-11-17T23:19:13.380Z,7.33
2022-11-17T23:21:41.380Z,7.37
2022-11-17T23:24:12.529Z,7.36
2022-11-17T23:26:40.877Z,7.33
2022-11-17T23:29:09.359Z,7.27
2022-11-17T23:31:37.038Z,7.28
2022-11-17T23:34:04.896Z,7.27
2022-11-17T23:36:33.978Z,7.22
2022-11-17T23:39:01.633Z,7.19
2022-11-17T23:41:29.425Z,7.19
2022-11-17T23:43:57.079Z,7.13
2022-11-17T23:46:26.575Z,7.16
2022-11-17T23:48:56.151Z,7.11
2022-11-17T23:51:26.234Z,7.06
2022-11-17T23:53:55.225Z,7.07
2022-11-17T23:56:23.390Z,7.08
2022-11-17T23:58:52.002Z,7.09
